• Join FlightAware (Why Join?)
  • Login
  • US Flag 
05:33AM EST


 

Airport Tracker/Info


-or-


 

Live Flight TrackerFlight Track Log ✈ LIA553 ✈ 12-Jul-2013 ✈ TIST / STT - TQPF / AXA

Flight Track Log - Related Links

Times and Time Zones

All times are in EDT time to prevent confusion due to time zone crossing. See the LIA553 flight status page for this flight to view local times or setup timezone preferences in your user account.

Time Position Orientation Groundspeed Altitude Reporting Facility
EDT Latitude Longitude Course Direction KTS MPH feet Rate Location/Type
03:20PM 18.3333 -64.9833 180° South 150 173 900  Level San Juan Center
03:21PM 18.3000 -64.9833 180° South 150 173 2,100 1,260 Climbing San Juan Center
03:22PM 18.2833 -64.9333 109° East 150 173 3,500 1,260 Climbing San Juan Center
03:23PM 18.2667 -64.9000 118° Southeast 160 184 4,700 1,200 Climbing San Juan Center
03:24PM 18.2667 -64.8500 90° East 160 184 6,000 1,200 Climbing San Juan Center
03:25PM 18.2667 -64.8000 90° East 160 184 7,100 1,020 Climbing San Juan Center
03:26PM 18.2667 -64.7500 90° East 190 219 8,100 900 Climbing San Juan Center
03:27PM 18.2833 -64.7000 71° East 190 219 9,000 420 Climbing San Juan Center
03:28PM 18.2833 -64.6333 90° East 220 253 9,000  Level San Juan Center
03:29PM 18.3167 -64.5667 62° Northeast 250 288 9,000  Level San Juan Center
03:30PM 18.3167 -64.5000 90° East 240 276 9,000  Level San Juan Center
03:31PM 18.3167 -64.4167 90° East 250 288 9,000  Level San Juan Center
03:32PM 18.3333 -64.3500 75° East 250 288 9,000  Level San Juan Center
03:33PM 18.3333 -64.2667 90° East 260 299 9,000  Level San Juan Center
03:34PM 18.3333 -64.2000 90° East 250 288 9,000 900 Level San Juan Center
03:35PM 18.3000 -64.1500 125° Southeast 200 230 10,900 1,320 Climbing San Juan Center
03:36PM 18.2833 -64.1000 109° East 200 230 11,700 840 Climbing San Juan Center
03:37PM 18.2667 -64.0333 105° East 200 230 12,600 1,140 Climbing San Juan Center
03:38PM 18.2333 -63.9833 125° Southeast 180 207 14,000 1,080 Climbing San Juan Center
03:39PM 18.2167 -63.9333 109° East 180 207 14,800 600 Climbing San Juan Center
03:40PM 18.2000 -63.8833 109° East 190 219 15,300 600 Climbing San Juan Center
03:41PM 18.1833 -63.8333 109° East 200 230 16,000 600 Climbing San Juan Center
03:42PM 18.1500 -63.7833 125° Southeast 210 242 16,600 480 Climbing San Juan Center
03:43PM 18.1333 -63.7167 105° East 220 253 17,000 180 Climbing San Juan Center
03:44PM 18.1000 -63.6500 118° Southeast 250 288 17,000  Level San Juan Center
03:45PM 18.0667 -63.5833 118° Southeast 250 288 17,000  Level San Juan Center
03:46PM 18.0500 -63.5167 105° East 260 299 17,000  Level San Juan Center
03:47PM 18.0167 -63.4500 118° Southeast 260 299 17,000  Level San Juan Center
03:48PM 17.9833 -63.3667 113° Southeast 270 311 17,000  Level San Juan Center
03:50PM 17.9500 -63.3000 118° Southeast 270 311 17,000  Level San Juan Center
03:51PM 17.9167 -63.2333 118° Southeast 270 311 17,000  Level San Juan Center
03:52PM 17.9000 -63.1667 105° East 270 311 17,000  Level San Juan Center
03:53PM 17.8667 -63.0833 113° Southeast 270 311 17,000  Level San Juan Center
03:54PM 17.8333 -63.0167 118° Southeast 260 299 17,000  Level San Juan Center
03:56PM 17.7667 -62.8833 118° Southeast 270 311 17,000  Level San Juan Center
03:57PM 17.7500 -62.8000 102° East 260 299 17,000  Level San Juan Center
03:58PM 17.7167 -62.7333 118° Southeast 260 299 17,000  Level San Juan Center
03:59PM 17.6833 -62.6667 118° Southeast 270 311 17,000  Level San Juan Center
04:00PM 17.6500 -62.6000 118° Southeast 260 299 17,000  Level San Juan Center
04:02PM 17.7681 -62.6965 322° Northwest  Level Estimated
04:09PM 18.1916 -63.0442 322° Northwest  Level Estimated
04:10PM 18.2048 -63.0551 322° Northwest  Level Estimated
04:11PM 18.2048 -63.0551 316° Northwest  Level Estimated
04:12PM 18.2048 -63.0551 316° Northwest  Level Estimated
04:13PM 18.2048 -63.0551 316° Northwest  Level Estimated
04:14PM 18.2048 -63.0551 316° Northwest  Level Estimated
04:15PM 18.2048 -63.0551 316° Northwest  Level Estimated
04:16PM 18.2048 -63.0551 316° Northwest  Level Estimated
04:17PM 18.2048 -63.0551 316° Northwest  Level Estimated
04:18PM 18.2048 -63.0551 316° Northwest  Level Estimated
04:19PM 18.2048 -63.0551 316° Northwest  Level Estimated
04:20PM 18.2048 -63.0551 316° Northwest  Level Estimated